createdAt,value
2019-02-28T00:00:52.989Z,31.10
2019-02-28T00:03:57.958Z,31.07
2019-02-28T00:06:58.832Z,35.23
2019-02-28T00:10:00.714Z,29.93
2019-02-28T00:13:02.624Z,32.70
2019-02-28T00:16:04.606Z,31.30
2019-02-28T00:19:07.272Z,30.00
2019-02-28T00:22:11.357Z,29.87
2019-02-28T00:25:12.951Z,32.90
2019-02-28T00:28:14.898Z,33.43
2019-02-28T00:31:16.897Z,32.47
2019-02-28T00:34:18.804Z,32.70
2019-02-28T00:37:20.722Z,33.77
2019-02-28T00:40:22.610Z,33.73
2019-02-28T00:43:25.315Z,34.63
2019-02-28T00:46:27.974Z,34.53
2019-02-28T00:49:30.451Z,33.23
2019-02-28T00:52:35.511Z,33.03
2019-02-28T00:55:36.163Z,31.27
2019-02-28T00:58:38.062Z,31.77
2019-02-28T01:01:39.954Z,32.77
2019-02-28T01:04:41.852Z,31.30
2019-02-28T01:07:43.888Z,33.43
2019-02-28T01:10:46.130Z,32.17
2019-02-28T01:13:48.026Z,31.77
2019-02-28T01:16:50.218Z,33.60
2019-02-28T01:19:53.887Z,33.87
2019-02-28T01:22:58.568Z,35.07
2019-02-28T01:25:59.642Z,35.53
2019-02-28T01:29:02.668Z,32.47
2019-02-28T01:32:04.839Z,34.20
2019-02-28T01:35:07.677Z,33.80
2019-02-28T01:38:09.618Z,33.70
2019-02-28T01:41:11.886Z,31.20
2019-02-28T01:44:14.183Z,30.67
2019-02-28T01:47:19.873Z,30.27
2019-02-28T01:50:20.513Z,30.50
2019-02-28T01:53:22.399Z,28.97
2019-02-28T01:56:24.274Z,29.23
2019-02-28T01:59:26.158Z,28.30
2019-02-28T02:02:29.295Z,28.27
2019-02-28T02:05:31.178Z,29.17
2019-02-28T02:08:33.140Z,29.60
2019-02-28T02:11:35.039Z,28.70
2019-02-28T02:14:36.891Z,30.00
2019-02-28T02:17:38.792Z,28.23
2019-02-28T02:20:40.770Z,30.00
2019-02-28T02:23:42.710Z,26.97
2019-02-28T02:26:45.239Z,28.17
2019-02-28T02:29:47.857Z,28.80
2019-02-28T02:32:50.534Z,27.50
2019-02-28T02:35:52.407Z,26.07
2019-02-28T02:38:54.317Z,25.50
2019-02-28T02:41:56.194Z,23.50
2019-02-28T02:44:58.099Z,24.10
2019-02-28T02:48:00.061Z,23.60
2019-02-28T02:51:02.040Z,22.37
2019-02-28T02:54:03.945Z,23.80
2019-02-28T02:57:05.822Z,25.10
2019-02-28T03:00:13.683Z,23.60
2019-02-28T03:03:14.922Z,23.80
2019-02-28T03:06:16.817Z,23.00
2019-02-28T03:09:18.772Z,22.87
2019-02-28T03:12:20.657Z,22.23
2019-02-28T03:15:26.918Z,22.33
2019-02-28T03:18:26.343Z,23.70
2019-02-28T03:21:28.359Z,22.37
2019-02-28T03:24:31.267Z,22.10
2019-02-28T03:27:33.178Z,20.20
2019-02-28T03:30:35.140Z,20.30
2019-02-28T03:33:37.029Z,20.50
2019-02-28T03:36:38.927Z,19.60
2019-02-28T03:39:40.842Z,19.93
2019-02-28T03:42:42.818Z,18.63
2019-02-28T03:45:45.433Z,20.50
2019-02-28T03:48:47.317Z,19.73
2019-02-28T03:51:49.301Z,20.50
2019-02-28T03:54:51.191Z,20.53
2019-02-28T03:57:53.452Z,21.17
2019-02-28T04:00:55.417Z,21.60
2019-02-28T04:03:57.291Z,21.80
2019-02-28T04:06:59.150Z,20.60
2019-02-28T04:10:01.215Z,21.47
2019-02-28T04:13:03.077Z,22.33
2019-02-28T04:16:09.267Z,22.17
2019-02-28T04:19:08.776Z,20.87
2019-02-28T04:22:10.770Z,23.10
2019-02-28T04:25:12.644Z,21.90
2019-02-28T04:28:18.670Z,20.83
2019-02-28T04:31:20.203Z,19.90
2019-02-28T04:34:22.371Z,21.37
2019-02-28T04:37:24.275Z,20.57
2019-02-28T04:40:27.000Z,18.83
2019-02-28T04:43:29.694Z,19.00
2019-02-28T04:46:32.564Z,17.27
2019-02-28T04:49:34.905Z,17.93
2019-02-28T04:52:36.913Z,18.17
2019-02-28T04:55:38.838Z,16.77
2019-02-28T04:58:42.012Z,17.13
2019-02-28T05:01:45.209Z,16.57
2019-02-28T05:04:47.781Z,16.10
2019-02-28T05:07:50.523Z,14.10
2019-02-28T05:10:55.631Z,14.23
2019-02-28T05:13:56.483Z,15.77
2019-02-28T05:16:58.434Z,15.67
2019-02-28T05:20:00.319Z,16.80
2019-02-28T05:23:02.930Z,13.67
2019-02-28T05:26:06.193Z,16.13
2019-02-28T05:29:08.111Z,15.07
2019-02-28T05:32:09.998Z,15.50
2019-02-28T05:35:11.917Z,13.80
2019-02-28T05:38:13.832Z,14.53
2019-02-28T05:41:16.036Z,14.07
2019-02-28T05:44:18.312Z,14.43
2019-02-28T05:47:20.264Z,14.10
2019-02-28T05:50:22.172Z,13.93
2019-02-28T05:53:24.153Z,15.73
2019-02-28T05:56:26.108Z,16.47
2019-02-28T05:59:29.810Z,14.07
2019-02-28T06:02:31.695Z,15.07
2019-02-28T06:05:33.677Z,16.13
2019-02-28T06:08:39.050Z,15.83
2019-02-28T06:11:39.584Z,16.87
2019-02-28T06:14:41.471Z,18.13
2019-02-28T06:17:43.413Z,14.17
2019-02-28T06:20:51.154Z,12.77
2019-02-28T06:23:49.333Z,11.87
2019-02-28T06:26:51.240Z,10.83
2019-02-28T06:29:53.151Z,10.67
2019-02-28T06:32:58.082Z,11.53
2019-02-28T06:35:58.893Z,11.60
2019-02-28T06:39:00.831Z,10.83
2019-02-28T06:42:02.963Z,10.80
2019-02-28T06:45:11.115Z,8.93
2019-02-28T06:48:13.186Z,9.73
2019-02-28T06:51:16.773Z,10.10
2019-02-28T06:54:19.036Z,10.10
2019-02-28T06:57:20.953Z,9.30
2019-02-28T07:00:22.898Z,11.30
2019-02-28T07:03:24.958Z,15.47
2019-02-28T07:06:26.992Z,14.90
2019-02-28T07:09:30.439Z,15.03
2019-02-28T07:12:33.159Z,9.93
2019-02-28T07:15:35.304Z,11.40
2019-02-28T07:18:37.306Z,10.77
2019-02-28T07:21:42.851Z,10.77
2019-02-28T07:24:43.133Z,12.10
2019-02-28T07:27:45.048Z,9.90
2019-02-28T07:30:50.302Z,11.00
2019-02-28T07:33:51.437Z,11.33
2019-02-28T07:36:53.562Z,19.60
2019-02-28T07:39:55.617Z,18.13
2019-02-28T07:42:58.540Z,14.90
2019-02-28T07:46:00.500Z,12.37
2019-02-28T07:49:03.826Z,11.40
2019-02-28T07:52:05.728Z,12.57
2019-02-28T07:55:11.355Z,11.63
2019-02-28T07:58:13.301Z,10.77
2019-02-28T08:01:15.469Z,13.63
2019-02-28T08:04:18.568Z,13.13
2019-02-28T08:07:21.283Z,13.10
2019-02-28T08:10:26.151Z,12.73
2019-02-28T08:13:28.222Z,13.03
2019-02-28T08:16:30.727Z,13.67
2019-02-28T08:19:34.710Z,14.03
2019-02-28T08:22:36.703Z,14.07
2019-02-28T08:25:39.615Z,13.17
2019-02-28T08:28:42.601Z,14.43
2019-02-28T08:31:44.560Z,15.27
2019-02-28T08:34:46.924Z,14.90
2019-02-28T08:37:55.380Z,15.50
2019-02-28T08:40:53.063Z,16.13
2019-02-28T08:43:55.022Z,15.47
2019-02-28T08:46:56.914Z,17.37
2019-02-28T08:49:58.839Z,17.93
2019-02-28T08:53:02.543Z,18.50
2019-02-28T08:56:04.515Z,19.07
2019-02-28T08:59:11.770Z,22.73
2019-02-28T09:02:10.674Z,22.67
2019-02-28T09:05:13.685Z,23.70
2019-02-28T09:08:15.717Z,25.87
2019-02-28T09:11:20.778Z,28.70
2019-02-28T09:14:21.724Z,27.10
2019-02-28T09:17:23.657Z,28.87
2019-02-28T09:20:25.712Z,27.23
2019-02-28T09:23:27.849Z,28.37
2019-02-28T09:26:31.944Z,28.03
2019-02-28T09:29:34.142Z,28.30
2019-02-28T09:32:36.033Z,28.90
2019-02-28T09:35:37.932Z,29.93
2019-02-28T09:38:42.345Z,28.50
2019-02-28T09:41:44.015Z,26.60
2019-02-28T09:44:45.930Z,26.40
2019-02-28T09:47:47.913Z,27.97
2019-02-28T09:50:49.963Z,26.30
2019-02-28T09:53:51.906Z,26.53
2019-02-28T09:56:53.924Z,24.27
2019-02-28T09:59:55.909Z,25.70
2019-02-28T10:02:57.793Z,25.13
2019-02-28T10:05:59.696Z,24.00
2019-02-28T10:09:01.633Z,22.57
2019-02-28T10:12:07.846Z,20.67
2019-02-28T10:15:22.227Z,21.53
2019-02-28T10:18:24.153Z,18.10
2019-02-28T10:21:26.060Z,19.47
2019-02-28T10:24:28.378Z,20.23
2019-02-28T10:27:30.647Z,19.57
2019-02-28T10:30:32.817Z,18.77
2019-02-28T10:33:34.807Z,17.07
2019-02-28T10:36:36.875Z,17.57
2019-02-28T10:39:40.250Z,18.00
2019-02-28T10:42:42.691Z,16.60
2019-02-28T10:45:46.100Z,17.83
2019-02-28T10:48:50.975Z,16.43
2019-02-28T10:51:52.459Z,16.63
2019-02-28T10:54:54.537Z,15.47
2019-02-28T10:57:56.577Z,14.33
2019-02-28T11:00:58.439Z,15.60
2019-02-28T11:04:00.488Z,14.80
2019-02-28T11:07:03.126Z,16.57
2019-02-28T11:10:08.000Z,14.37
2019-02-28T11:13:12.341Z,15.47
2019-02-28T11:16:14.484Z,16.50
2019-02-28T11:19:18.560Z,14.80
2019-02-28T11:22:20.284Z,15.33
2019-02-28T11:25:25.364Z,14.30
2019-02-28T11:28:28.304Z,15.57
2019-02-28T11:31:31.251Z,15.57
2019-02-28T11:34:33.212Z,15.00
2019-02-28T11:37:35.424Z,15.87
2019-02-28T11:40:40.481Z,13.27
2019-02-28T11:43:41.384Z,13.00
2019-02-28T11:46:44.593Z,15.17
2019-02-28T11:49:46.496Z,12.80
2019-02-28T11:52:48.595Z,12.53
2019-02-28T11:55:53.297Z,12.90
2019-02-28T11:58:54.583Z,12.07
2019-02-28T12:01:56.500Z,13.63
2019-02-28T12:04:58.482Z,13.77
2019-02-28T12:08:00.469Z,12.67
2019-02-28T12:11:02.902Z,13.10
2019-02-28T12:14:06.330Z,13.90
2019-02-28T12:17:08.660Z,12.80
2019-02-28T12:20:12.595Z,13.63
2019-02-28T12:23:14.557Z,12.83
2019-02-28T12:26:17.819Z,14.30
2019-02-28T12:29:20.350Z,16.23
2019-02-28T12:32:25.365Z,15.33
2019-02-28T12:35:27.387Z,12.80
2019-02-28T12:38:29.316Z,12.17
2019-02-28T12:41:31.271Z,12.40
2019-02-28T12:44:33.234Z,13.23
2019-02-28T12:47:35.208Z,12.27
2019-02-28T12:50:37.168Z,12.77
2019-02-28T12:53:39.107Z,13.00
2019-02-28T12:56:41.100Z,12.10
2019-02-28T12:59:45.832Z,13.10
2019-02-28T13:02:47.205Z,14.97
2019-02-28T13:05:49.595Z,13.47
2019-02-28T13:08:53.454Z,14.40
2019-02-28T13:11:55.624Z,14.07
2019-02-28T13:14:57.727Z,14.63
2019-02-28T13:18:07.312Z,15.00
2019-02-28T13:21:10.708Z,16.53
2019-02-28T13:24:10.708Z,16.93
2019-02-28T13:27:13.202Z,17.23
2019-02-28T13:30:23.339Z,15.67
2019-02-28T13:33:26.627Z,16.77
2019-02-28T13:36:28.681Z,17.03
2019-02-28T13:39:31.603Z,17.90
2019-02-28T13:42:36.350Z,17.77
2019-02-28T13:45:38.314Z,17.50
2019-02-28T13:48:40.260Z,16.43
2019-02-28T13:51:42.751Z,16.67
2019-02-28T13:54:44.956Z,14.60
2019-02-28T13:57:47.153Z,16.43
2019-02-28T14:00:50.269Z,18.13
2019-02-28T14:03:52.170Z,17.97
2019-02-28T14:06:55.788Z,16.93
2019-02-28T14:09:59.154Z,15.93
2019-02-28T14:13:01.257Z,16.80
2019-02-28T14:16:03.513Z,16.80
2019-02-28T14:19:05.515Z,16.60
2019-02-28T14:22:08.645Z,15.43
2019-02-28T14:25:11.825Z,14.93
2019-02-28T14:28:13.965Z,15.57
2019-02-28T14:31:16.080Z,16.73
2019-02-28T14:34:20.845Z,17.10
2019-02-28T14:37:22.966Z,16.97
2019-02-28T14:40:25.284Z,16.73
2019-02-28T14:43:28.495Z,18.87
2019-02-28T14:46:30.454Z,18.73
2019-02-28T14:49:33.241Z,19.03
2019-02-28T14:52:39.415Z,17.83
2019-02-28T14:55:40.783Z,20.60
2019-02-28T14:58:42.702Z,18.33
2019-02-28T15:01:44.792Z,19.77
2019-02-28T15:04:46.784Z,18.60
2019-02-28T15:07:50.029Z,20.47
2019-02-28T15:10:53.258Z,19.17
2019-02-28T15:13:55.747Z,21.70
2019-02-28T15:17:02.031Z,21.77
2019-02-28T15:20:04.941Z,20.97
2019-02-28T15:23:07.097Z,22.27
2019-02-28T15:26:09.190Z,22.90
2019-02-28T15:29:11.341Z,23.47
2019-02-28T15:32:14.231Z,23.37
2019-02-28T15:35:19.646Z,23.40
2019-02-28T15:38:21.765Z,21.97
2019-02-28T15:41:23.721Z,24.47
2019-02-28T15:44:29.129Z,23.10
2019-02-28T15:47:30.447Z,24.33
2019-02-28T15:50:32.586Z,25.27
2019-02-28T15:53:34.831Z,24.70
2019-02-28T15:56:38.716Z,25.10
2019-02-28T15:59:40.824Z,38.33
2019-02-28T16:02:43.119Z,29.43
2019-02-28T16:05:46.212Z,28.97
2019-02-28T16:08:49.015Z,29.90
2019-02-28T16:11:51.086Z,28.93
2019-02-28T16:14:55.278Z,30.80
2019-02-28T16:17:57.552Z,28.47
2019-02-28T16:20:59.710Z,30.30
2019-02-28T16:24:02.054Z,29.27
2019-02-28T16:27:06.618Z,29.03
2019-02-28T16:30:12.061Z,31.00
2019-02-28T16:33:14.522Z,27.17
2019-02-28T16:36:18.884Z,30.40
2019-02-28T16:39:20.836Z,28.97
2019-02-28T16:42:24.796Z,30.00
2019-02-28T16:45:32.259Z,28.17
2019-02-28T16:48:36.493Z,29.53
2019-02-28T16:51:38.667Z,26.70
2019-02-28T16:54:40.675Z,29.03
2019-02-28T16:57:43.608Z,36.60
2019-02-28T17:00:46.525Z,43.13
2019-02-28T17:03:50.574Z,40.37
2019-02-28T17:06:52.539Z,80.03
2019-02-28T17:09:56.223Z,80.27
2019-02-28T17:13:15.375Z,33.10
2019-02-28T17:16:19.522Z,28.10
2019-02-28T17:19:21.457Z,30.07
2019-02-28T17:22:26.909Z,31.33
2019-02-28T17:25:29.421Z,29.93
2019-02-28T17:28:35.756Z,28.80
2019-02-28T17:31:40.684Z,28.93
2019-02-28T17:34:42.939Z,30.47
2019-02-28T17:37:46.160Z,30.80
2019-02-28T17:40:48.083Z,31.70
2019-02-28T17:44:24.234Z,32.53
2019-02-28T17:47:38.566Z,32.73
2019-02-28T17:50:44.072Z,32.63
2019-02-28T17:54:01.139Z,31.77
2019-02-28T17:57:21.241Z,33.33
2019-02-28T18:00:41.102Z,31.97
2019-02-28T18:03:50.254Z,31.10
2019-02-28T18:07:32.825Z,31.03
2019-02-28T18:10:39.658Z,31.43
2019-02-28T18:13:52.190Z,30.13
2019-02-28T18:17:17.364Z,28.00
2019-02-28T18:20:32.231Z,28.40
2019-02-28T18:24:04.185Z,30.17
2019-02-28T18:27:26.753Z,29.03
2019-02-28T18:31:09.368Z,29.97
2019-02-28T18:34:12.561Z,29.03
2019-02-28T18:37:14.766Z,30.60
2019-02-28T18:40:17.694Z,31.20
2019-02-28T18:43:19.689Z,30.93
2019-02-28T18:46:23.309Z,34.30
2019-02-28T18:49:26.585Z,29.63
2019-02-28T18:52:29.238Z,29.17
2019-02-28T18:55:35.115Z,30.83
2019-02-28T18:58:37.129Z,30.50
2019-02-28T19:01:39.102Z,32.60
2019-02-28T19:04:41.089Z,31.13
2019-02-28T19:07:48.287Z,34.53
2019-02-28T19:10:52.625Z,33.90
2019-02-28T19:13:54.532Z,37.10
2019-02-28T19:16:58.024Z,34.03
2019-02-28T19:19:59.966Z,35.83
2019-02-28T19:23:02.154Z,34.50
2019-02-28T19:26:04.316Z,38.20
2019-02-28T19:29:06.320Z,37.30
2019-02-28T19:32:09.648Z,37.73
2019-02-28T19:35:11.579Z,36.37
2019-02-28T19:38:15.600Z,39.90
2019-02-28T19:41:17.841Z,39.40
2019-02-28T19:44:21.361Z,39.87
2019-02-28T19:47:23.276Z,39.23
2019-02-28T19:50:28.396Z,40.20
2019-02-28T19:53:32.112Z,40.40
2019-02-28T19:56:34.056Z,38.43
2019-02-28T19:59:38.205Z,38.87
2019-02-28T20:02:40.129Z,39.63
2019-02-28T20:05:44.305Z,41.97
2019-02-28T20:08:48.254Z,42.23
2019-02-28T20:11:54.284Z,41.33
2019-02-28T20:14:56.278Z,36.93
2019-02-28T20:18:01.607Z,39.50
2019-02-28T20:21:05.747Z,40.47
2019-02-28T20:24:09.476Z,40.27
2019-02-28T20:27:12.215Z,38.50
2019-02-28T20:30:17.075Z,41.37
2019-02-28T20:33:19.355Z,41.87
2019-02-28T20:36:22.660Z,42.53
2019-02-28T20:39:26.075Z,40.23
2019-02-28T20:42:28.394Z,41.83
2019-02-28T20:45:33.857Z,41.57
2019-02-28T20:48:35.798Z,41.47
2019-02-28T20:51:40.146Z,41.07
2019-02-28T20:54:42.354Z,40.23
2019-02-28T20:57:44.399Z,40.57
2019-02-28T21:00:46.488Z,42.10
2019-02-28T21:03:48.441Z,43.00
2019-02-28T21:06:50.467Z,41.33
2019-02-28T21:09:53.664Z,42.27
2019-02-28T21:12:55.603Z,39.87
2019-02-28T21:15:57.841Z,41.53
2019-02-28T21:18:59.792Z,44.70
2019-02-28T21:22:01.680Z,43.97
2019-02-28T21:25:07.151Z,44.43
2019-02-28T21:28:10.391Z,50.97
2019-02-28T21:31:13.151Z,56.03
2019-02-28T21:34:15.036Z,58.00
2019-02-28T21:37:20.310Z,58.37
2019-02-28T21:40:23.804Z,58.67
2019-02-28T21:43:25.723Z,60.20
2019-02-28T21:46:27.747Z,60.90
2019-02-28T21:49:29.592Z,60.37
2019-02-28T21:52:31.551Z,64.33
2019-02-28T21:55:35.678Z,60.53
2019-02-28T21:58:38.286Z,63.00
2019-02-28T22:01:40.606Z,62.00
2019-02-28T22:04:43.572Z,60.20
2019-02-28T22:07:45.418Z,61.70
2019-02-28T22:10:47.509Z,64.40
2019-02-28T22:13:49.376Z,61.30
2019-02-28T22:16:51.318Z,64.93
2019-02-28T22:19:53.380Z,66.13
2019-02-28T22:22:55.287Z,62.30
2019-02-28T22:25:57.163Z,66.80
2019-02-28T22:28:59.131Z,64.83
2019-02-28T22:32:05.965Z,62.70
2019-02-28T22:35:09.818Z,62.20
2019-02-28T22:38:11.747Z,64.67
2019-02-28T22:41:14.847Z,58.10
2019-02-28T22:44:16.796Z,57.73
2019-02-28T22:47:18.731Z,57.63
2019-02-28T22:50:20.681Z,56.23
2019-02-28T22:53:22.529Z,55.43
2019-02-28T22:56:24.478Z,56.63
2019-02-28T22:59:26.400Z,62.40
2019-02-28T23:02:29.015Z,55.90
2019-02-28T23:05:30.942Z,61.53
2019-02-28T23:08:32.875Z,60.53
2019-02-28T23:11:34.858Z,64.83
2019-02-28T23:14:36.752Z,59.70
2019-02-28T23:17:38.732Z,60.17
2019-02-28T23:20:40.639Z,56.77
2019-02-28T23:23:42.615Z,63.10
2019-02-28T23:27:07.822Z,60.40
2019-02-28T23:30:22.462Z,59.97
2019-02-28T23:33:24.352Z,61.97
2019-02-28T23:36:26.310Z,62.77
2019-02-28T23:39:28.267Z,62.93
2019-02-28T23:42:30.352Z,66.03
2019-02-28T23:45:32.242Z,59.67
2019-02-28T23:48:34.190Z,61.83
2019-02-28T23:51:36.143Z,61.73
2019-02-28T23:54:38.128Z,63.63
2019-02-28T23:57:40.070Z,69.27
